createdAt,value
2019-04-25T00:01:14.206Z,1.10
2019-04-25T00:05:15.270Z,1.07
2019-04-25T00:09:22.198Z,0.90
2019-04-25T00:13:21.772Z,0.97
2019-04-25T00:17:40.493Z,1.00
2019-04-25T00:21:57.811Z,1.00
2019-04-25T00:26:05.071Z,1.20
2019-04-25T00:30:05.084Z,0.87
2019-04-25T00:34:09.362Z,1.30
2019-04-25T00:38:08.039Z,1.03
2019-04-25T00:42:08.506Z,0.97
2019-04-25T00:46:11.300Z,0.80
2019-04-25T00:50:20.071Z,1.00
2019-04-25T00:54:20.023Z,1.00
2019-04-25T00:58:23.113Z,1.17
2019-04-25T01:02:36.910Z,1.00
2019-04-25T01:06:37.431Z,1.13
2019-04-25T01:10:36.020Z,1.10
2019-04-25T01:14:35.446Z,1.10
2019-04-25T01:18:37.641Z,1.10
2019-04-25T01:22:43.984Z,1.17
2019-04-25T01:26:41.791Z,1.10
2019-04-25T01:30:41.111Z,1.30
2019-04-25T01:35:00.468Z,1.37
2019-04-25T01:39:04.311Z,1.37
2019-04-25T01:43:10.530Z,1.90
2019-04-25T01:47:12.079Z,0.97
2019-04-25T01:51:10.785Z,1.17
2019-04-25T01:55:09.876Z,1.20
2019-04-25T01:59:08.504Z,0.83
2019-04-25T02:03:07.141Z,1.20
2019-04-25T02:07:07.138Z,1.33
2019-04-25T02:11:14.199Z,1.40
2019-04-25T02:15:14.990Z,1.63
2019-04-25T02:19:19.693Z,1.27
2019-04-25T02:23:18.245Z,1.03
2019-04-25T02:27:16.865Z,1.30
2019-04-25T02:35:35.247Z,1.57
2019-04-25T02:39:36.863Z,1.00
2019-04-25T02:43:35.178Z,1.00
2019-04-25T02:47:58.506Z,1.17
2019-04-25T02:52:01.205Z,1.20
2019-04-25T02:56:00.233Z,1.30
2019-04-25T03:00:00.126Z,1.30
2019-04-25T03:04:00.846Z,1.13
2019-04-25T03:08:08.298Z,1.03
2019-04-25T03:12:10.068Z,0.87
2019-04-25T03:16:11.049Z,1.20
2019-04-25T03:20:17.051Z,1.13
2019-04-25T03:24:18.057Z,1.10
2019-04-25T03:28:17.138Z,1.00
2019-04-25T03:32:29.408Z,1.40
2019-04-25T03:36:33.839Z,0.90
2019-04-25T03:40:31.729Z,1.20
2019-04-25T03:44:33.774Z,1.20
2019-04-25T03:48:35.215Z,1.20
2019-04-25T03:52:37.526Z,1.10
2019-04-25T03:56:36.939Z,1.00
2019-04-25T04:00:36.416Z,0.93
2019-04-25T04:04:38.199Z,1.37
2019-04-25T04:08:44.303Z,1.30
2019-04-25T04:12:48.019Z,1.10
2019-04-25T04:17:06.396Z,1.00
2019-04-25T04:21:16.178Z,1.40
2019-04-25T04:25:16.701Z,0.90
2019-04-25T04:29:16.919Z,1.20
2019-04-25T04:33:29.823Z,1.20
2019-04-25T04:37:18.950Z,1.20
2019-04-25T04:41:25.109Z,0.97
2019-04-25T04:45:30.021Z,1.73
2019-04-25T04:49:47.973Z,1.40
2019-04-25T04:53:48.529Z,1.27
2019-04-25T04:57:50.523Z,1.10
2019-04-25T05:01:56.538Z,1.00
2019-04-25T05:05:56.732Z,1.30
2019-04-25T05:09:55.257Z,1.30
2019-04-25T05:13:57.027Z,1.00
2019-04-25T05:18:01.671Z,1.20
2019-04-25T05:22:08.918Z,1.50
2019-04-25T05:26:17.229Z,1.07
2019-04-25T05:30:19.483Z,1.30
2019-04-25T05:34:25.881Z,1.07
2019-04-25T05:38:30.661Z,1.30
2019-04-25T05:42:36.177Z,1.33
2019-04-25T05:46:43.753Z,1.30
2019-04-25T05:50:50.766Z,1.00
2019-04-25T05:54:54.051Z,1.40
2019-04-25T05:58:59.559Z,1.37
2019-04-25T06:02:58.022Z,1.33
2019-04-25T06:07:00.592Z,1.13
2019-04-25T06:11:13.462Z,1.27
2019-04-25T06:15:14.222Z,1.50
2019-04-25T06:19:18.479Z,1.60
2019-04-25T06:23:34.039Z,1.10
2019-04-25T06:27:35.207Z,1.20
2019-04-25T06:31:39.177Z,1.00
2019-04-25T06:35:38.270Z,1.17
2019-04-25T06:39:48.707Z,1.20
2019-04-25T06:43:49.364Z,1.00
2019-04-25T06:47:49.534Z,1.10
2019-04-25T06:51:54.704Z,1.27
2019-04-25T06:55:56.908Z,1.50
2019-04-25T06:59:56.253Z,1.43
2019-04-25T07:03:59.862Z,1.00
2019-04-25T07:08:10.538Z,0.83
2019-04-25T07:12:06.921Z,1.00
2019-04-25T07:16:09.287Z,1.23
2019-04-25T07:20:11.341Z,1.40
2019-04-25T07:24:16.107Z,1.00
2019-04-25T07:28:31.468Z,1.00
2019-04-25T07:32:34.875Z,0.80
2019-04-25T07:36:37.340Z,1.07
2019-04-25T07:40:36.871Z,1.10
2019-04-25T07:44:49.411Z,0.90
2019-04-25T07:48:37.268Z,1.10
2019-04-25T07:52:36.371Z,1.17
2019-04-25T07:56:35.554Z,1.10
2019-04-25T08:00:37.645Z,0.97
2019-04-25T08:04:37.052Z,0.90
2019-04-25T08:08:36.095Z,1.20
2019-04-25T08:12:44.132Z,0.93
2019-04-25T08:16:46.177Z,1.10
2019-04-25T08:20:46.886Z,1.20
2019-04-25T08:24:46.023Z,1.27
2019-04-25T08:28:54.995Z,1.00
2019-04-25T08:32:50.966Z,1.10
2019-04-25T08:36:52.168Z,1.00
2019-04-25T08:40:55.716Z,1.20
2019-04-25T08:44:54.513Z,0.80
2019-04-25T08:49:06.346Z,0.83
2019-04-25T08:53:15.470Z,1.47
2019-04-25T08:57:21.500Z,1.00
2019-04-25T09:01:40.596Z,1.00
2019-04-25T09:05:45.987Z,1.00
2019-04-25T09:09:43.987Z,0.83
2019-04-25T09:13:56.042Z,0.80
2019-04-25T09:17:55.780Z,1.30
2019-04-25T09:22:00.354Z,1.13
2019-04-25T09:25:59.500Z,0.87
2019-04-25T09:29:59.743Z,1.10
2019-04-25T09:33:58.668Z,0.83
2019-04-25T09:37:57.250Z,0.97
2019-04-25T09:42:04.262Z,0.60
2019-04-25T09:46:09.899Z,1.00
2019-04-25T09:50:29.218Z,0.87
2019-04-25T09:54:38.012Z,1.10
2019-04-25T09:58:34.723Z,1.00
2019-04-25T10:02:40.268Z,0.93
2019-04-25T10:06:40.687Z,1.07
2019-04-25T10:10:42.459Z,0.98
2019-04-25T10:14:49.859Z,1.00
2019-04-25T10:19:00.190Z,1.00
2019-04-25T10:22:59.011Z,0.90
2019-04-25T10:27:01.234Z,0.70
2019-04-25T10:31:00.171Z,1.07
2019-04-25T10:34:58.885Z,1.00
2019-04-25T10:39:11.011Z,0.80
2019-04-25T10:43:14.164Z,0.90
2019-04-25T10:47:18.190Z,0.73
2019-04-25T10:51:16.723Z,0.93
2019-04-25T10:55:19.738Z,1.00
2019-04-25T10:59:32.835Z,0.90
2019-04-25T11:03:49.395Z,1.17
2019-04-25T11:07:50.998Z,0.80
2019-04-25T11:11:52.700Z,0.80
2019-04-25T11:15:52.000Z,0.70
2019-04-25T11:19:51.230Z,0.70
2019-04-25T11:23:50.146Z,0.70
2019-04-25T11:27:49.915Z,0.73
2019-04-25T11:31:50.935Z,0.80
2019-04-25T11:35:55.992Z,0.93
2019-04-25T11:39:56.126Z,1.50
2019-04-25T11:44:03.490Z,1.40
2019-04-25T11:48:02.813Z,1.00
2019-04-25T11:52:28.167Z,0.70
2019-04-25T11:56:30.033Z,0.60
2019-04-25T12:00:36.540Z,0.70
2019-04-25T12:04:39.688Z,0.60
2019-04-25T12:08:41.038Z,0.70
2019-04-25T12:12:48.467Z,0.80
2019-04-25T12:16:54.982Z,0.60
2019-04-25T12:20:54.888Z,0.90
2019-04-25T12:24:54.687Z,0.73
2019-04-25T12:28:59.721Z,0.63
2019-04-25T12:33:00.959Z,0.50
2019-04-25T12:37:01.062Z,0.70
2019-04-25T12:41:01.667Z,0.93
2019-04-25T12:45:14.143Z,0.60
2019-04-25T12:49:09.609Z,0.70
2019-04-25T12:53:13.794Z,0.50
2019-04-25T12:57:14.410Z,0.30
2019-04-25T13:01:16.526Z,0.40
2019-04-25T13:05:15.378Z,0.73
2019-04-25T13:09:17.648Z,0.43
2019-04-25T13:13:18.163Z,0.70
2019-04-25T13:17:24.052Z,0.70
2019-04-25T13:21:23.459Z,0.50
2019-04-25T13:25:50.164Z,0.77
2019-04-25T13:29:43.316Z,0.60
2019-04-25T13:33:48.085Z,0.50
2019-04-25T13:37:49.696Z,0.90
2019-04-25T13:41:48.730Z,0.70
2019-04-25T13:45:47.427Z,0.67
2019-04-25T13:49:48.259Z,0.80
2019-04-25T13:53:51.396Z,0.43
2019-04-25T13:57:55.162Z,0.40
2019-04-25T14:01:57.563Z,0.50
2019-04-25T14:06:00.328Z,0.50
2019-04-25T14:10:03.368Z,0.60
2019-04-25T14:14:02.304Z,0.77
2019-04-25T14:18:05.315Z,0.57
2019-04-25T14:22:06.000Z,0.70
2019-04-25T14:26:05.055Z,0.70
2019-04-25T14:30:07.898Z,0.80
2019-04-25T14:34:13.216Z,0.50
2019-04-25T14:38:13.908Z,0.67
2019-04-25T14:42:19.986Z,0.80
2019-04-25T14:46:23.451Z,0.50
2019-04-25T14:50:22.606Z,0.50
2019-04-25T14:54:36.000Z,0.88
2019-04-25T14:58:36.191Z,0.83
2019-04-25T15:02:54.682Z,0.67
2019-04-25T15:06:55.288Z,0.70
2019-04-25T15:11:05.903Z,0.80
2019-04-25T15:15:11.479Z,0.67
2019-04-25T15:19:16.577Z,0.60
2019-04-25T15:23:19.554Z,0.97
2019-04-25T15:27:30.586Z,0.80
2019-04-25T15:31:30.130Z,0.80
2019-04-25T15:35:39.451Z,0.67
2019-04-25T15:39:55.706Z,0.70
2019-04-25T15:44:19.438Z,0.67
2019-04-25T15:48:24.230Z,0.83
2019-04-25T15:52:26.760Z,1.10
2019-04-25T15:56:28.635Z,0.80
2019-04-25T16:00:40.310Z,0.97
2019-04-25T16:04:42.093Z,0.90
2019-04-25T16:08:42.106Z,0.90
2019-04-25T16:12:40.675Z,0.83
2019-04-25T16:16:42.195Z,0.90
2019-04-25T16:20:44.446Z,0.97
2019-04-25T16:24:44.753Z,1.00
2019-04-25T16:28:51.314Z,0.90
2019-04-25T16:32:50.223Z,0.90
2019-04-25T16:36:48.863Z,1.07
2019-04-25T16:40:57.414Z,1.00
2019-04-25T16:44:56.696Z,1.00
2019-04-25T16:48:56.830Z,1.57
2019-04-25T16:53:04.320Z,1.43
2019-04-25T16:57:03.235Z,1.40
2019-04-25T17:01:06.960Z,0.90
2019-04-25T17:05:09.084Z,1.00
2019-04-25T17:09:11.121Z,1.30
2019-04-25T17:13:16.404Z,1.03
2019-04-25T17:17:16.594Z,1.00
2019-04-25T17:21:21.683Z,1.40
2019-04-25T17:25:22.443Z,1.10
2019-04-25T17:29:25.820Z,1.03
2019-04-25T17:33:35.678Z,1.67
2019-04-25T17:37:38.510Z,1.20
2019-04-25T17:41:38.384Z,1.13
2019-04-25T17:45:39.100Z,1.10
2019-04-25T17:49:37.892Z,1.30
2019-04-25T17:53:39.085Z,1.33
2019-04-25T17:57:47.322Z,1.13
2019-04-25T18:02:07.273Z,1.10
2019-04-25T18:06:06.319Z,0.87
2019-04-25T18:10:12.894Z,0.80
2019-04-25T18:14:11.849Z,1.03
2019-04-25T18:18:28.303Z,0.67
2019-04-25T18:22:49.998Z,0.97
2019-04-25T18:27:03.801Z,0.70
2019-04-25T18:31:06.926Z,0.90
2019-04-25T18:35:17.658Z,0.67
2019-04-25T18:39:21.589Z,0.70
2019-04-25T18:43:24.549Z,0.80
2019-04-25T18:47:23.130Z,0.83
2019-04-25T18:51:28.212Z,1.30
2019-04-25T18:55:50.173Z,1.00
2019-04-25T18:59:59.053Z,0.63
2019-04-25T19:04:15.188Z,0.60
2019-04-25T19:08:14.374Z,0.90
2019-04-25T19:12:22.983Z,0.87
2019-04-25T19:16:21.588Z,0.80
2019-04-25T19:20:20.228Z,0.73
2019-04-25T19:24:18.884Z,0.73
2019-04-25T19:28:18.747Z,0.83
2019-04-25T19:32:19.901Z,0.70
2019-04-25T19:36:19.310Z,0.70
2019-04-25T19:40:36.447Z,0.57
2019-04-25T19:44:36.304Z,0.73
2019-04-25T19:48:34.966Z,0.60
2019-04-25T19:52:33.444Z,0.70
2019-04-25T19:56:36.462Z,1.00
2019-04-25T20:00:37.077Z,0.80
2019-04-25T20:04:49.491Z,0.80
2019-04-25T20:08:50.744Z,0.97
2019-04-25T20:12:59.378Z,0.80
2019-04-25T20:16:58.057Z,0.57
2019-04-25T20:20:56.607Z,0.80
2019-04-25T20:24:59.417Z,0.80
2019-04-25T20:28:55.508Z,0.70
2019-04-25T20:32:55.624Z,0.80
2019-04-25T20:36:54.495Z,0.73
2019-04-25T20:40:57.054Z,0.83
2019-04-25T20:44:58.136Z,2.03
2019-04-25T20:48:56.689Z,0.90
2019-04-25T20:52:55.567Z,0.60
2019-04-25T20:56:55.776Z,0.90
2019-04-25T21:00:56.232Z,0.90
2019-04-25T21:04:54.796Z,1.00
2019-04-25T21:08:55.461Z,0.83
2019-04-25T21:12:55.768Z,0.77
2019-04-25T21:17:02.918Z,1.23
2019-04-25T21:21:03.547Z,0.80
2019-04-25T21:25:02.469Z,1.20
2019-04-25T21:29:02.757Z,1.20
2019-04-25T21:33:12.828Z,1.30
2019-04-25T21:37:17.792Z,1.70
2019-04-25T21:41:53.413Z,0.90
2019-04-25T21:45:51.913Z,1.13
2019-04-25T21:49:52.310Z,1.20
2019-04-25T21:53:54.364Z,1.17
2019-04-25T21:58:04.213Z,1.57
2019-04-25T22:02:02.624Z,1.37
2019-04-25T22:06:01.229Z,1.00
2019-04-25T22:09:59.808Z,1.00
2019-04-25T22:13:59.523Z,1.07
2019-04-25T22:17:58.756Z,1.10
2019-04-25T22:22:00.604Z,1.10
2019-04-25T22:26:01.056Z,1.50
2019-04-25T22:30:03.426Z,1.20
2019-04-25T22:34:11.636Z,1.17
2019-04-25T22:38:13.183Z,1.03
2019-04-25T22:42:12.083Z,1.30
2019-04-25T22:46:25.360Z,1.43
2019-04-25T22:50:18.452Z,1.73
2019-04-25T22:54:17.266Z,1.40
2019-04-25T22:58:18.775Z,1.40
2019-04-25T23:02:25.200Z,1.60
2019-04-25T23:06:30.856Z,1.73
2019-04-25T23:10:29.415Z,1.43
2019-04-25T23:14:50.039Z,1.90
2019-04-25T23:18:58.013Z,2.27
2019-04-25T23:23:00.466Z,1.63
2019-04-25T23:27:12.821Z,2.00
2019-04-25T23:31:13.022Z,1.93
2019-04-25T23:35:24.192Z,1.70
2019-04-25T23:39:13.611Z,1.80
2019-04-25T23:43:13.540Z,2.10
2019-04-25T23:47:33.000Z,2.03
2019-04-25T23:51:37.129Z,1.53
2019-04-25T23:55:38.687Z,1.70
2019-04-25T23:59:42.936Z,1.77
